Time;durP1;ratioP1;P1;durP2;ratioP2;P2;SDS_P1;SDS_P2;PMS_P1;PMS_P2;Temp;Humidity;BMP_temperature;BMP_pressure;BME280_temperature;BME280_humidity;BME280_pressure;Samples;Min_cycle;Max_cycle;Signal;HPM_P1;HPM_P2
2024/02/28 00:01:48;;;;;;;;;;;;;;;4.74;59.94;101968.91;4924722;28;124315;-76
2024/02/28 00:04:16;;;;;;;34.22;14.25;;;;;;;4.72;59.30;101968.06;4917527;28;124247;-77
2024/02/28 00:06:43;;;;;;;34.38;14.48;;;;;;;4.70;59.86;101977.69;4915702;28;114318;-76
2024/02/28 00:09:15;;;;;;;31.98;14.15;;;;;;;4.65;59.64;101968.94;4932989;28;113712;-76
2024/02/28 00:11:44;;;;;;;33.88;15.75;;;;;;;4.64;59.61;101967.22;4931740;28;124003;-76
2024/02/28 00:14:15;;;;;;;37.20;15.18;;;;;;;4.61;59.90;101962.81;4920181;28;123965;-76
2024/02/28 00:16:52;;;;;;;32.08;15.00;;;;;;;4.59;60.01;101968.97;4906511;28;114214;-76
2024/02/28 00:19:20;;;;;;;35.03;15.07;;;;;;;4.56;60.06;101968.94;4931919;28;115452;-76
2024/02/28 00:21:47;;;;;;;31.90;14.00;;;;;;;4.55;59.62;101964.59;4900184;28;123842;-76
2024/02/28 00:24:42;;;;;;;33.75;14.70;;;;;;;4.51;59.74;101968.97;4898150;28;122875;-76
2024/02/28 00:27:09;;;;;;;40.38;15.82;;;;;;;4.49;59.51;101955.84;4904434;28;114559;-76
2024/02/28 00:29:36;;;;;;;35.00;14.70;;;;;;;4.47;59.72;101949.75;4904988;28;112985;-76
2024/02/28 00:32:06;;;;;;;36.90;15.93;;;;;;;4.44;59.85;101954.97;4927847;28;123914;-77
2024/02/28 00:34:33;;;;;;;40.20;16.15;;;;;;;4.43;59.72;101957.63;4917018;28;122927;-76
2024/02/28 00:37:00;;;;;;;64.82;17.65;;;;;;;4.42;60.06;101955.88;4922268;28;114336;-77
2024/02/28 00:39:32;;;;;;;76.25;18.25;;;;;;;4.41;60.12;101955.00;4924283;28;113693;-77
2024/02/28 00:41:59;;;;;;;59.85;17.25;;;;;;;4.41;60.04;101955.00;4928561;28;124225;-77
2024/02/28 00:44:26;;;;;;;42.75;17.08;;;;;;;4.42;60.18;101951.50;4934735;28;123604;-77
2024/02/28 00:46:59;;;;;;;58.75;16.20;;;;;;;4.41;60.22;101949.75;4913830;28;115534;-77
2024/02/28 00:49:27;;;;;;;50.03;15.63;;;;;;;4.41;59.94;101957.63;4924271;28;115031;-77
2024/02/28 00:51:57;;;;;;;93.60;17.05;;;;;;;4.40;60.12;101948.00;4907317;28;123204;-76
2024/02/28 00:54:25;;;;;;;40.30;15.23;;;;;;;4.40;60.12;101948.00;4934164;28;123905;-77
2024/02/28 00:57:05;;;;;;;47.70;14.85;;;;;;;4.39;60.15;101946.28;4930956;28;114064;-77
2024/02/28 00:59:32;;;;;;;41.60;15.32;;;;;;;4.39;60.01;101941.03;4932359;28;113484;-77
2024/02/28 01:02:03;;;;;;;35.25;15.45;;;;;;;4.39;60.30;101941.03;4916101;28;123205;-77
2024/02/28 01:04:30;;;;;;;35.22;14.43;;;;;;;4.39;60.32;101946.28;4934480;28;123636;-77
2024/02/28 01:06:58;;;;;;;33.72;14.70;;;;;;;4.40;60.16;101952.38;4917301;28;114043;-77
2024/02/28 01:09:29;;;;;;;33.47;14.05;;;;;;;4.40;60.11;101942.75;4932304;28;114152;-77
2024/02/28 01:11:56;;;;;;;33.25;14.35;;;;;;;4.41;59.95;101948.91;4905840;28;123050;-77
2024/02/28 01:14:24;;;;;;;36.78;15.07;;;;;;;4.39;60.25;101951.53;4932246;28;123822;-77
2024/02/28 01:17:00;;;;;;;31.70;14.10;;;;;;;4.41;59.97;101955.00;4934339;28;114003;-77
2024/02/28 01:19:27;;;;;;;31.60;14.43;;;;;;;4.41;60.18;101944.50;4934303;28;113815;-77
2024/02/28 01:21:58;;;;;;;31.58;14.38;;;;;;;4.41;60.26;101949.75;4911840;28;123852;-77
2024/02/28 01:24:25;;;;;;;32.58;14.32;;;;;;;4.42;60.30;101951.50;4921855;28;123614;-77
2024/02/28 01:26:53;;;;;;;31.55;13.45;;;;;;;4.40;60.34;101948.00;4905997;28;113593;-77
2024/02/28 01:29:25;;;;;;;30.40;14.18;;;;;;;4.40;60.04;101948.00;4932148;28;114159;-77
2024/02/28 01:31:52;;;;;;;33.08;14.32;;;;;;;4.41;60.06;101948.91;4932774;28;124812;-77
2024/02/28 01:34:20;;;;;;;34.53;15.02;;;;;;;4.40;60.30;101942.75;4916895;28;124140;-77
2024/02/28 01:36:48;;;;;;;33.55;14.45;;;;;;;4.40;60.08;101952.38;4900167;28;114982;-76
2024/02/28 01:39:15;;;;;;;31.42;14.52;;;;;;;4.38;60.21;101949.75;4907766;28;114131;-77
2024/02/28 01:41:51;;;;;;;33.35;14.60;;;;;;;4.36;60.35;101953.28;4913915;28;124704;-77
2024/02/28 01:44:19;;;;;;;29.70;13.95;;;;;;;4.34;60.21;101948.03;4901142;28;124549;-77
2024/02/28 01:46:47;;;;;;;36.13;15.15;;;;;;;4.30;60.05;101951.53;4934974;28;114519;-77
2024/02/28 01:49:17;;;;;;;34.40;14.27;;;;;;;4.29;60.40;101960.25;4935383;28;113665;-77
2024/02/28 01:52:00;;;;;;;32.28;14.93;;;;;;;4.31;60.17;101958.50;4904902;28;124062;-77
2024/02/28 01:54:29;;;;;;;29.55;14.77;;;;;;;4.31;60.16;101961.13;4937326;28;123863;-77
2024/02/28 01:56:57;;;;;;;35.70;15.02;;;;;;;4.31;60.31;101963.75;4933852;28;114169;-77
2024/02/28 01:59:26;;;;;;;32.30;13.88;;;;;;;4.31;60.31;101969.00;4914296;28;113398;-77
2024/02/28 02:01:55;;;;;;;32.22;13.32;;;;;;;4.31;60.34;101962.88;4932882;28;124262;-77
2024/02/28 02:04:22;;;;;;;30.05;14.00;;;;;;;4.32;60.43;101954.16;4924100;28;124851;-77
2024/02/28 02:06:54;;;;;;;30.25;14.23;;;;;;;4.31;60.35;101953.25;4917466;28;114194;-77
2024/02/28 02:09:21;;;;;;;29.80;13.93;;;;;;;4.32;60.19;101960.25;4925796;28;113704;-77
2024/02/28 02:11:48;;;;;;;31.83;14.57;;;;;;;4.31;60.06;101953.25;4922996;28;124519;-77
2024/02/28 02:14:41;;;;;;;35.03;14.68;;;;;;;4.26;60.10;101955.03;4918805;28;123896;-77
2024/02/28 02:17:08;;;;;;;26.55;10.45;;;;;;;4.24;59.77;101956.78;4934784;28;114077;-77
2024/02/28 02:19:35;;;;;;;26.38;10.75;;;;;;;4.22;60.01;101958.50;4921032;28;113525;-77
2024/02/28 02:22:05;;;;;;;27.60;10.63;;;;;;;4.20;60.04;101960.25;4934106;28;124690;-77
2024/02/28 02:24:32;;;;;;;31.23;11.10;;;;;;;4.19;60.04;101963.78;4919019;28;124160;-76
2024/02/28 02:27:04;;;;;;;23.30;10.68;;;;;;;4.16;59.82;101954.13;4927061;28;115115;-77
2024/02/28 02:29:32;;;;;;;24.17;9.95;;;;;;;4.15;60.17;101959.41;4903682;28;114668;-78
2024/02/28 02:31:59;;;;;;;27.58;11.60;;;;;;;4.14;60.23;101965.50;4933122;28;124095;-77
2024/02/28 02:34:31;;;;;;;28.30;11.20;;;;;;;4.10;60.18;101952.41;4932255;28;124120;-77
2024/02/28 02:36:59;;;;;;;27.27;10.63;;;;;;;4.09;60.11;101948.03;4919022;28;114595;-77
2024/02/28 02:39:26;;;;;;;23.50;10.32;;;;;;;4.08;60.13;101954.16;4919051;28;114927;-77
2024/02/28 02:41:53;;;;;;;29.65;11.52;;;;;;;4.06;59.78;101953.28;4890177;28;123363;-77
2024/02/28 02:44:21;;;;;;;25.83;10.75;;;;;;;4.04;59.99;101965.50;4916395;28;123013;-77
2024/02/28 02:46:48;;;;;;;27.45;11.05;;;;;;;4.01;60.02;101976.00;4925562;28;113934;-77
2024/02/28 02:49:18;;;;;;;29.75;11.18;;;;;;;3.98;60.09;101973.38;4927896;28;114532;-77
2024/02/28 02:51:45;;;;;;;24.45;10.63;;;;;;;3.97;59.93;101978.63;4932568;28;124174;-77
2024/02/28 02:54:12;;;;;;;27.77;11.60;;;;;;;3.96;59.92;101980.38;4912374;28;123347;-78
2024/02/28 02:56:43;;;;;;;27.40;12.30;;;;;;;3.96;60.21;101977.75;4936933;28;114633;-77
2024/02/28 02:59:12;;;;;;;26.70;10.68;;;;;;;3.94;60.04;101971.63;4916978;28;113596;-77
2024/02/28 03:01:40;;;;;;;21.33;8.38;;;;;;;3.93;60.03;101977.75;4915222;28;123438;-77
2024/02/28 03:04:07;;;;;;;21.02;8.80;;;;;;;3.90;60.11;101975.13;4907324;28;123223;-77
2024/02/28 03:06:40;;;;;;;21.40;8.27;;;;;;;3.89;59.82;101970.75;4928970;28;114233;-77
2024/02/28 03:09:08;;;;;;;22.80;8.23;;;;;;;3.88;59.93;101971.59;4933716;28;113816;-78
2024/02/28 03:11:36;;;;;;;23.95;8.95;;;;;;;3.86;60.08;101966.41;4933138;28;123844;-78
2024/02/28 03:14:03;;;;;;;22.92;8.48;;;;;;;3.85;59.76;101974.25;4909917;28;124062;-77
2024/02/28 03:16:31;;;;;;;27.00;10.00;;;;;;;3.85;59.98;101969.00;4916246;28;115161;-78
2024/02/28 03:18:58;;;;;;;23.25;8.80;;;;;;;3.85;60.06;101963.75;4923513;28;115938;-78
2024/02/28 03:21:29;;;;;;;21.73;8.82;;;;;;;3.85;59.72;101976.88;4914959;28;123498;-78
2024/02/28 03:23:57;;;;;;;22.33;9.02;;;;;;;3.85;60.06;101969.00;4923200;28;124130;-78
2024/02/28 03:26:24;;;;;;;22.70;8.65;;;;;;;3.84;59.79;101972.47;4926125;28;113243;-78
2024/02/28 03:29:01;;;;;;;22.63;8.75;;;;;;;3.84;59.85;101975.09;4916748;28;114220;-78
2024/02/28 03:31:29;;;;;;;22.98;9.30;;;;;;;3.81;60.00;101973.38;4916727;28;123022;-78
2024/02/28 03:33:58;;;;;;;20.58;8.93;;;;;;;3.81;60.00;101969.88;4919300;28;124198;-79
2024/02/28 03:36:28;;;;;;;18.52;8.13;;;;;;;3.80;59.87;101973.34;4934518;28;114298;-79
2024/02/28 03:38:55;;;;;;;20.95;8.38;;;;;;;3.80;59.94;101975.97;4934627;28;113918;-79
2024/02/28 03:41:27;;;;;;;20.85;8.60;;;;;;;3.78;59.59;101977.72;4908962;28;125131;-79
2024/02/28 03:43:54;;;;;;;21.95;8.13;;;;;;;3.77;59.93;101975.97;4912692;28;122297;-80
2024/02/28 03:46:21;;;;;;;22.85;9.00;;;;;;;3.75;59.66;101972.47;4945537;28;115052;-80
2024/02/28 03:48:49;;;;;;;20.95;9.32;;;;;;;3.74;59.72;101965.50;4945756;28;113601;-80
2024/02/28 03:51:16;;;;;;;23.20;9.50;;;;;;;3.73;59.85;101968.97;4926615;28;123829;-80
2024/02/28 03:53:43;;;;;;;26.00;10.50;;;;;;;3.72;59.92;101962.00;4947566;28;123510;-79
2024/02/28 03:56:11;;;;;;;28.75;9.93;;;;;;;3.72;59.92;101967.25;4927157;28;114229;-80
2024/02/28 03:59:12;;;;;;;26.98;10.57;;;;;;;3.70;59.83;101965.47;4931088;28;113494;-80
2024/02/28 04:01:39;;;;;;;29.58;9.95;;;;;;;3.72;59.88;101972.47;4928582;28;122319;-80
2024/02/28 04:04:07;;;;;;;29.75;11.18;;;;;;;3.69;59.87;101970.72;4942431;28;122056;-80
2024/02/28 04:06:46;;;;;;;25.00;10.20;;;;;;;3.67;60.11;101969.84;4929262;28;116143;-80
2024/02/28 04:09:14;;;;;;;27.67;10.35;;;;;;;3.66;59.85;101968.13;4916251;28;113456;-80
2024/02/28 04:11:42;;;;;;;27.70;10.75;;;;;;;3.65;59.91;101972.44;4942775;28;123937;-80
2024/02/28 04:14:17;;;;;;;26.20;10.25;;;;;;;3.65;59.91;101975.06;4935246;28;123492;-80
2024/02/28 04:16:47;;;;;;;29.05;10.63;;;;;;;3.64;59.64;101970.72;4937234;28;114050;-80
2024/02/28 04:19:14;;;;;;;38.50;10.68;;;;;;;3.62;60.12;101977.72;4950643;28;114947;-80
2024/02/28 04:21:44;;;;;;;28.55;10.38;;;;;;;3.61;60.10;101981.19;4930919;28;123905;-80
2024/02/28 04:24:11;;;;;;;34.35;11.18;;;;;;;3.60;59.97;101979.44;4921487;28;122308;-80
2024/02/28 04:26:42;;;;;;;25.33;10.13;;;;;;;3.60;59.78;101982.06;4933970;28;114895;-81
2024/02/28 04:30:17;;;;;;;30.00;10.88;;;;;;;3.58;59.86;101986.44;4949310;28;114942;-80
2024/02/28 04:32:45;;;;;;;29.38;10.80;;;;;;;3.57;59.46;101992.53;4920417;28;124780;-80
2024/02/28 07:04:18;;;;;;;35.80;12.30;;;;;;;4.04;60.68;102088.72;4929254;28;97377;-71
2024/02/28 07:06:45;;;;;;;32.95;12.43;;;;;;;4.07;60.55;102080.88;4930720;28;115368;-73
2024/02/28 07:09:15;;;;;;;36.75;13.77;;;;;;;4.10;60.73;102091.34;4933328;28;115303;-74
2024/02/28 07:11:42;;;;;;;34.22;13.00;;;;;;;4.16;60.75;102094.84;4919525;28;123057;-75
2024/02/28 07:14:10;;;;;;;37.85;14.15;;;;;;;4.20;60.77;102101.84;4930508;28;124565;-71
2024/02/28 07:16:37;;;;;;;40.45;13.75;;;;;;;4.27;60.58;102114.09;4916164;28;113881;-71
2024/02/28 07:19:04;;;;;;;37.70;14.25;;;;;;;4.32;60.84;102117.63;4926830;28;115168;-71
2024/02/28 07:21:33;;;;;;;40.20;14.73;;;;;;;4.38;60.61;102116.75;4929157;28;124255;-70
2024/02/28 07:24:00;;;;;;;27.38;10.15;;;;;;;4.44;60.78;102115.00;4928594;28;124223;-71
2024/02/28 07:26:27;;;;;;;25.40;10.15;;;;;;;4.49;60.86;102115.00;4926866;28;114298;-70
2024/02/28 07:28:55;;;;;;;25.45;10.63;;;;;;;4.53;60.90;102118.50;4928094;28;114683;-71
2024/02/28 07:31:22;;;;;;;23.42;10.18;;;;;;;4.58;60.61;102119.41;4927305;28;124713;-71
2024/02/28 07:33:50;;;;;;;23.35;9.95;;;;;;;4.63;60.93;102117.63;4929712;28;123007;-71
2024/02/28 07:36:17;;;;;;;30.73;11.27;;;;;;;4.69;60.42;102122.91;4944502;28;113862;-71
2024/02/28 07:38:45;;;;;;;29.25;12.25;;;;;;;4.73;60.54;102119.41;4926998;28;114233;-71
2024/02/28 07:41:12;;;;;;;29.73;12.27;;;;;;;4.77;60.74;102115.88;4928819;28;124131;-71
2024/02/28 07:43:43;;;;;;;29.73;12.80;;;;;;;4.81;60.64;102125.50;4928423;28;122921;-70
2024/02/28 07:46:11;;;;;;;25.42;11.32;;;;;;;4.86;60.85;102125.53;4930406;28;114553;-70
2024/02/28 07:48:39;;;;;;;22.98;10.57;;;;;;;4.92;60.85;102135.16;4932025;28;112965;-70
2024/02/28 07:51:07;;;;;;;25.17;10.68;;;;;;;4.96;60.63;102136.88;4919859;28;124590;-70
2024/02/28 07:53:35;;;;;;;23.98;10.73;;;;;;;5.00;61.00;102133.38;4922572;28;123647;-70
2024/02/28 07:56:02;;;;;;;25.15;10.93;;;;;;;5.05;60.98;102142.13;4925707;28;115476;-70
2024/02/28 07:58:30;;;;;;;24.08;10.63;;;;;;;5.08;60.92;102147.34;4927778;28;116015;-71
2024/02/28 08:00:57;;;;;;;22.33;10.18;;;;;;;5.11;60.86;102152.63;4929231;28;123666;-70
2024/02/28 08:03:25;;;;;;;23.92;10.57;;;;;;;5.17;60.82;102147.34;4924029;28;122832;-70
2024/02/28 08:05:52;;;;;;;22.77;10.95;;;;;;;5.21;60.86;102143.84;4929775;28;113981;-70
2024/02/28 08:08:20;;;;;;;26.20;10.25;;;;;;;5.28;61.16;102141.22;4917353;28;113951;-70
2024/02/28 08:10:48;;;;;;;21.98;10.10;;;;;;;5.31;61.18;102149.94;4925885;28;123724;-70
2024/02/28 08:13:16;;;;;;;26.23;10.73;;;;;;;5.38;60.83;102156.06;4909053;28;123934;-70
2024/02/28 08:15:45;;;;;;;22.63;10.48;;;;;;;5.41;60.88;102154.31;4927590;28;114252;-70
2024/02/28 08:18:12;;;;;;;21.88;10.35;;;;;;;5.47;61.10;102162.16;4916098;28;113834;-70
2024/02/28 08:20:40;;;;;;;19.33;9.93;;;;;;;5.51;61.25;102157.78;4920700;28;123552;-70
2024/02/28 08:23:08;;;;;;;24.05;9.93;;;;;;;5.58;61.00;102159.53;4921131;28;123850;-70
2024/02/28 08:25:35;;;;;;;20.63;10.13;;;;;;;5.63;60.93;102163.00;4924311;28;114595;-70
2024/02/28 08:28:03;;;;;;;21.42;10.45;;;;;;;5.69;61.08;102166.47;4925862;28;113841;-73
2024/02/28 08:30:30;;;;;;;19.85;9.48;;;;;;;5.74;61.06;102162.09;4922361;28;124185;-73
2024/02/28 08:32:58;;;;;;;21.98;9.68;;;;;;;5.77;60.92;102169.97;4925469;28;123611;-70
2024/02/28 08:35:26;;;;;;;20.08;9.55;;;;;;;5.81;60.88;102166.44;4925762;28;114802;-70
2024/02/28 08:37:53;;;;;;;22.65;9.80;;;;;;;5.85;61.35;102169.03;4929979;28;113792;-69
2024/02/28 08:40:21;;;;;;;20.88;10.35;;;;;;;5.90;61.24;102171.66;4930220;28;123887;-69
2024/02/28 08:42:52;;;;;;;22.67;10.15;;;;;;;5.95;61.06;102169.94;4927100;28;97113;-69
2024/02/28 08:45:20;;;;;;;25.52;10.00;;;;;;;6.01;61.41;102175.16;4928158;28;114397;-69
2024/02/28 08:47:48;;;;;;;21.02;10.32;;;;;;;6.07;61.03;102183.91;4924409;28;114488;-69
2024/02/28 08:50:15;;;;;;;19.95;9.35;;;;;;;6.12;61.20;102179.47;4912660;28;124005;-69
2024/02/28 08:52:43;;;;;;;26.10;10.52;;;;;;;6.18;61.13;102193.50;4926388;28;124620;-69
2024/02/28 08:55:10;;;;;;;22.52;10.50;;;;;;;6.24;61.40;102187.31;4924409;28;114298;-69
2024/02/28 08:57:37;;;;;;;22.85;10.23;;;;;;;6.33;61.41;102187.28;4937577;28;114058;-69
2024/02/28 09:00:08;;;;;;;22.15;10.70;;;;;;;6.40;61.42;102188.09;4929750;28;123921;-69
2024/02/28 09:02:36;;;;;;;24.95;10.50;;;;;;;6.50;61.00;102183.66;4925706;28;122835;-69
2024/02/28 09:05:04;;;;;;;32.70;13.25;;;;;;;6.58;61.40;102176.59;4926119;28;114699;-69
2024/02/28 09:07:32;;;;;;;30.02;13.10;;;;;;;6.68;61.68;102178.25;4923469;28;114455;-69
2024/02/28 09:09:59;;;;;;;32.35;12.68;;;;;;;6.80;61.90;102178.19;4921228;28;123772;-69
2024/02/28 09:12:27;;;;;;;31.52;13.30;;;;;;;6.94;62.10;102179.81;4921764;28;123976;-69
2024/02/28 09:14:56;;;;;;;28.55;12.60;;;;;;;7.05;61.92;102170.06;4925202;28;114461;-69
2024/02/28 09:17:23;;;;;;;31.58;13.75;;;;;;;7.17;61.69;102177.84;4923530;28;113312;-70
2024/02/28 09:19:52;;;;;;;27.85;12.90;;;;;;;7.27;61.56;102175.13;4922557;28;124187;-69
2024/02/28 09:22:21;;;;;;;31.10;12.63;;;;;;;7.38;61.84;102173.25;4926318;28;122919;-69
2024/02/28 09:24:51;;;;;;;27.25;12.05;;;;;;;7.47;61.98;102181.06;4936063;28;114272;-69
2024/02/28 09:27:18;;;;;;;31.52;13.50;;;;;;;7.54;61.54;102177.50;4927965;28;115082;-69
2024/02/28 09:29:46;;;;;;;28.05;12.10;;;;;;;7.66;61.77;102178.25;4920369;28;124708;-70
2024/02/28 09:32:14;;;;;;;30.83;13.35;;;;;;;7.77;62.00;102179.00;4915002;28;124039;-69
2024/02/28 09:34:42;;;;;;;29.10;12.40;;;;;;;7.87;61.71;102164.78;4929064;28;115465;-69
2024/02/28 09:37:09;;;;;;;30.60;13.65;;;;;;;7.99;61.82;102163.78;4925934;28;115009;-69
2024/02/28 09:39:41;;;;;;;26.70;12.00;;;;;;;8.11;62.15;102162.72;4908873;28;123231;-69
2024/02/28 09:42:09;;;;;;;29.98;12.90;;;;;;;8.22;62.11;102154.69;4926412;28;123516;-69
2024/02/28 09:44:39;;;;;;;27.13;12.25;;;;;;;8.33;61.89;102158.91;4921870;28;113576;-69
2024/02/28 09:47:08;;;;;;;28.70;12.82;;;;;;;8.47;62.30;102155.22;4920822;28;114189;-69
2024/02/28 09:49:37;;;;;;;30.73;12.93;;;;;;;8.60;62.29;102151.50;4924846;28;124081;-69
2024/02/28 09:52:04;;;;;;;26.63;12.13;;;;;;;8.75;61.87;102150.38;4921045;28;124281;-68
2024/02/28 09:54:33;;;;;;;28.30;12.57;;;;;;;8.88;62.03;102151.03;4920187;28;114401;-69
2024/02/28 09:57:00;;;;;;;23.60;12.38;;;;;;;9.02;62.04;102159.59;4910450;28;112905;-69
2024/02/28 09:59:28;;;;;;;27.05;12.75;;;;;;;9.12;61.90;102155.91;4918996;28;124276;-69
2024/02/28 10:02:11;;;;;;;25.63;12.55;;;;;;;9.25;61.98;102155.66;4925903;28;123589;-69
2024/02/28 10:04:39;;;;;;;23.30;11.32;;;;;;;9.37;61.92;102162.53;4929290;28;114328;-69
2024/02/28 10:07:14;;;;;;;27.58;11.57;;;;;;;9.44;61.72;102162.38;4928371;28;114753;-69
2024/02/28 10:09:42;;;;;;;25.77;11.50;;;;;;;9.51;61.56;102157.81;4925945;28;124098;-69
2024/02/28 10:12:10;;;;;;;24.92;12.25;;;;;;;9.55;61.50;102157.75;4927432;28;124015;-69
2024/02/28 10:14:38;;;;;;;26.02;11.82;;;;;;;9.61;61.50;102153.25;4922148;28;114289;-68
2024/02/28 10:17:08;;;;;;;24.35;11.40;;;;;;;9.67;61.73;102163.69;4926518;28;114105;-69
2024/02/28 10:19:35;;;;;;;26.55;11.73;;;;;;;9.75;61.53;102172.34;4926571;28;124662;-69
2024/02/28 10:22:03;;;;;;;24.13;11.77;;;;;;;9.82;61.51;102179.25;4926770;28;123919;-68
2024/02/28 10:24:33;;;;;;;25.15;11.95;;;;;;;9.88;61.42;102175.63;4918502;28;114259;-69
2024/02/28 10:27:01;;;;;;;23.92;10.95;;;;;;;9.98;61.52;102176.28;4923091;28;114430;-68
2024/02/28 10:29:29;;;;;;;26.90;12.10;;;;;;;10.09;61.87;102171.63;4928215;28;124762;-68
2024/02/28 10:31:57;;;;;;;23.30;11.80;;;;;;;10.19;61.81;102162.59;4930715;28;123622;-69
2024/02/28 10:34:24;;;;;;;24.27;10.57;;;;;;;10.31;61.68;102157.06;4928713;28;114395;-68
2024/02/28 10:36:52;;;;;;;24.42;11.07;;;;;;;10.41;61.64;102162.13;4932137;28;113980;-68
2024/02/28 10:39:21;;;;;;;23.05;10.57;;;;;;;10.47;61.62;102161.97;4930305;28;124171;-68
2024/02/28 10:41:51;;;;;;;24.45;10.85;;;;;;;10.56;61.40;102156.47;4927765;28;122856;-68
2024/02/28 10:44:20;;;;;;;23.52;9.60;;;;;;;10.65;61.45;102156.25;4922855;28;115101;-69
2024/02/28 10:46:51;;;;;;;22.65;10.18;;;;;;;10.74;61.60;102148.97;4921426;28;115123;-68
2024/02/28 10:49:20;;;;;;;21.38;9.80;;;;;;;10.83;61.47;102151.41;4919727;28;124024;-69
2024/02/28 10:51:49;;;;;;;22.73;10.10;;;;;;;10.90;61.31;102153.84;4920033;28;123621;-68
2024/02/28 10:54:20;;;;;;;23.60;10.00;;;;;;;10.98;61.36;102148.38;4922651;28;114125;-69
2024/02/28 10:56:49;;;;;;;26.10;10.65;;;;;;;11.07;61.37;102153.44;4926574;28;113857;-68
2024/02/28 10:59:17;;;;;;;19.45;9.48;;;;;;;11.16;61.33;102151.47;4928696;28;124058;-68
2024/02/28 11:01:45;;;;;;;22.35;9.77;;;;;;;11.26;61.43;102139.69;4928133;28;122832;-68
2024/02/28 11:04:16;;;;;;;23.10;10.05;;;;;;;11.34;61.28;102140.38;4930251;28;114125;-68
2024/02/28 11:06:55;;;;;;;20.00;9.77;;;;;;;11.43;61.26;102145.41;4920006;28;114005;-68
2024/02/28 11:09:28;;;;;;;23.55;9.95;;;;;;;11.53;61.21;102150.44;4921020;28;124207;-69
2024/02/28 11:11:55;;;;;;;20.65;10.15;;;;;;;11.58;61.08;102143.22;4919239;28;124026;-69
2024/02/28 11:14:26;;;;;;;22.92;9.32;;;;;;;11.65;61.02;102136.84;4927895;28;115300;-69
2024/02/28 11:17:01;;;;;;;20.80;9.75;;;;;;;11.73;60.92;102137.47;4922239;28;115446;-68
2024/02/28 11:19:33;;;;;;;21.27;9.82;;;;;;;11.81;60.91;102130.19;4908365;28;123585;-68
2024/02/28 11:22:04;;;;;;;23.30;10.07;;;;;;;11.86;60.73;102133.53;4923825;28;123692;-69
2024/02/28 11:24:34;;;;;;;23.13;10.15;;;;;;;11.94;60.78;102140.44;4929202;28;114282;-68
2024/02/28 11:27:02;;;;;;;18.77;9.95;;;;;;;12.00;60.69;102129.66;4923823;28;113867;-68
2024/02/28 11:29:30;;;;;;;21.88;9.45;;;;;;;12.07;60.60;102136.50;4927423;28;124524;-68
2024/02/28 11:31:59;;;;;;;22.85;9.80;;;;;;;12.11;60.61;102132.88;4932309;28;123871;-69
2024/02/28 11:34:28;;;;;;;22.30;10.00;;;;;;;12.14;60.58;102132.75;4918094;28;114712;-68
2024/02/28 11:36:58;;;;;;;18.77;9.77;;;;;;;12.19;60.41;102130.84;4906402;28;112943;-68
2024/02/28 11:39:26;;;;;;;23.13;9.60;;;;;;;12.21;60.27;102131.66;4916787;28;124103;-69
2024/02/28 11:41:54;;;;;;;19.77;10.02;;;;;;;12.21;60.32;102123.69;4929151;28;123915;-68
2024/02/28 11:44:21;;;;;;;24.95;10.10;;;;;;;12.23;60.23;102121.84;4931567;28;114114;-68
2024/02/28 11:46:49;;;;;;;22.80;10.18;;;;;;;12.27;60.19;102118.16;4932139;28;113766;-69
2024/02/28 11:49:17;;;;;;;21.35;9.50;;;;;;;12.27;60.14;102112.84;4930273;28;123888;-68
2024/02/28 11:51:45;;;;;;;22.00;9.65;;;;;;;12.27;59.91;102112.84;4927367;28;124574;-68
2024/02/28 11:54:14;;;;;;;18.77;9.82;;;;;;;12.26;59.98;102111.13;4928987;28;114152;-68
2024/02/28 11:56:42;;;;;;;21.02;10.00;;;;;;;12.29;60.09;102104.84;4937048;28;113556;-68
2024/02/28 11:59:11;;;;;;;23.75;11.25;;;;;;;12.33;60.01;102105.63;4919106;28;123983;-69
2024/02/28 12:01:50;;;;;;;19.55;10.13;;;;;;;12.34;59.99;102107.34;4924669;28;124170;-69
2024/02/28 12:04:17;;;;;;;23.35;10.52;;;;;;;12.34;59.82;102104.69;4926332;28;115227;-68
2024/02/28 12:06:45;;;;;;;20.55;9.30;;;;;;;12.38;59.86;102093.06;4923575;28;114067;-68
2024/02/28 12:09:16;;;;;;;23.85;10.45;;;;;;;12.41;59.94;102092.94;4929672;28;124846;-68
2024/02/28 12:11:55;;;;;;;21.15;9.93;;;;;;;12.44;59.83;102087.53;4921827;28;123931;-68
2024/02/28 12:14:22;;;;;;;18.90;9.73;;;;;;;12.50;59.93;102087.34;4923168;28;114928;-68
2024/02/28 12:16:50;;;;;;;21.35;9.20;;;;;;;12.54;59.86;102088.97;4926842;28;113932;-68
2024/02/28 12:19:19;;;;;;;19.90;10.13;;;;;;;12.58;59.71;102084.41;4919977;28;124738;-69
2024/02/28 12:21:47;;;;;;;23.02;10.10;;;;;;;12.64;59.86;102082.44;4924083;28;123522;-69
2024/02/28 12:24:14;;;;;;;22.98;11.15;;;;;;;12.70;59.76;102083.16;4927667;28;114547;-68
2024/02/28 12:26:42;;;;;;;22.85;11.18;;;;;;;12.73;59.88;102077.72;4937528;28;113383;-68
2024/02/28 12:29:10;;;;;;;27.17;11.82;;;;;;;12.76;59.76;102067.84;4922410;28;123901;-68
2024/02/28 12:31:38;;;;;;;25.42;11.10;;;;;;;12.78;59.69;102070.47;4923575;28;123991;-68
2024/02/28 12:34:06;;;;;;;28.10;12.88;;;;;;;12.77;59.54;102060.72;4920781;28;113778;-68
2024/02/28 12:36:34;;;;;;;26.20;13.10;;;;;;;12.75;59.53;102062.56;4925976;28;114815;-69
2024/02/28 12:39:02;;;;;;;28.73;12.02;;;;;;;12.74;59.44;102063.50;4920495;28;124303;-70
2024/02/28 12:41:29;;;;;;;24.77;12.52;;;;;;;12.74;59.30;102066.16;4921686;28;123913;-70
2024/02/28 12:43:57;;;;;;;27.40;12.18;;;;;;;12.73;59.35;102064.44;4920020;28;114975;-70
2024/02/28 12:46:24;;;;;;;25.33;12.05;;;;;;;12.73;59.60;102057.31;4930153;28;113394;-70
2024/02/28 12:48:52;;;;;;;26.70;12.90;;;;;;;12.74;59.49;102063.50;4914344;28;123727;-70
2024/02/28 12:51:40;;;;;;;26.33;12.32;;;;;;;12.73;59.45;102056.44;4929277;28;123720;-70
2024/02/28 12:54:08;;;;;;;27.65;12.82;;;;;;;12.73;59.24;102067.09;4929359;28;116980;-70
2024/02/28 12:56:37;;;;;;;30.10;12.88;;;;;;;12.69;59.30;102065.47;4928201;28;114659;-70
2024/02/28 12:59:07;;;;;;;28.67;13.10;;;;;;;12.66;59.25;102061.97;4921503;28;125030;-70
2024/02/28 13:01:34;;;;;;;28.02;13.05;;;;;;;12.68;59.42;102063.69;4930874;28;123103;-71
2024/02/28 13:04:03;;;;;;;24.30;12.07;;;;;;;12.68;59.41;102058.38;4925586;28;114377;-70
2024/02/28 13:06:31;;;;;;;27.10;12.60;;;;;;;12.70;59.28;102069.88;4919731;28;114610;-70
2024/02/28 13:08:58;;;;;;;27.60;12.85;;;;;;;12.69;59.37;102058.34;4937753;28;123292;-70
2024/02/28 13:11:26;;;;;;;31.67;13.57;;;;;;;12.68;59.27;102053.97;4919304;28;123920;-70
2024/02/28 13:13:53;;;;;;;31.17;12.88;;;;;;;12.72;59.41;102055.59;4926665;28;114042;-70
2024/02/28 13:16:23;;;;;;;34.13;13.40;;;;;;;12.76;59.36;102051.03;4909441;28;113066;-70
2024/02/28 13:18:51;;;;;;;26.70;12.88;;;;;;;12.78;59.38;102054.50;4918769;28;123848;-70
2024/02/28 13:21:18;;;;;;;25.30;11.90;;;;;;;12.79;59.28;102057.13;4923108;28;123707;-70
2024/02/28 13:23:45;;;;;;;23.02;11.23;;;;;;;12.80;59.17;102058.84;4924265;28;114543;-70
2024/02/28 13:26:17;;;;;;;24.83;10.75;;;;;;;12.81;59.20;102049.09;4928252;28;113871;-70
2024/02/28 13:28:46;;;;;;;21.63;11.38;;;;;;;12.82;59.19;102046.34;4908389;28;123293;-71
2024/02/28 13:31:18;;;;;;;28.45;11.63;;;;;;;12.84;59.19;102048.97;4924371;28;124256;-72
2024/02/28 13:33:48;;;;;;;24.33;11.00;;;;;;;12.84;59.16;102043.66;4934994;28;114922;-72
2024/02/28 13:36:15;;;;;;;23.48;10.85;;;;;;;12.86;59.08;102049.78;4922404;28;113900;-71
2024/02/28 13:38:43;;;;;;;24.95;11.20;;;;;;;12.85;58.82;102040.09;4924981;28;123212;-70
2024/02/28 13:41:11;;;;;;;24.13;10.55;;;;;;;12.83;58.93;102036.63;4924041;28;123646;-70
2024/02/28 13:43:38;;;;;;;23.50;10.20;;;;;;;12.82;58.85;102034.84;4925489;28;115140;-70
2024/02/28 13:46:06;;;;;;;20.98;10.23;;;;;;;12.80;58.84;102031.41;4921815;28;115334;-70
2024/02/28 13:48:34;;;;;;;24.25;10.20;;;;;;;12.78;58.89;102034.09;4932080;28;123177;-70